sensor_id;sensor_type;location;lat;lon;timestamp;pressure;altitude;pressure_sealevel;temperature;humidity
22649;BME280;11491;41.942;24.220;2023-05-01T00:00:50;89919.28;;;8.56;89.32
22649;BME280;11491;41.942;24.220;2023-05-01T00:03:17;89919.06;;;8.61;89.83
22649;BME280;11491;41.942;24.220;2023-05-01T00:05:45;89909.53;;;8.72;89.48
22649;BME280;11491;41.942;24.220;2023-05-01T00:08:11;89905.00;;;8.73;89.52
22649;BME280;11491;41.942;24.220;2023-05-01T00:10:38;89905.69;;;8.82;88.60
22649;BME280;11491;41.942;24.220;2023-05-01T00:13:05;89898.00;;;8.93;87.72
22649;BME280;11491;41.942;24.220;2023-05-01T00:15:32;89905.78;;;8.98;87.74
22649;BME280;11491;41.942;24.220;2023-05-01T00:18:00;89899.09;;;9.04;87.03
22649;BME280;11491;41.942;24.220;2023-05-01T00:20:27;89900.69;;;9.05;86.48
22649;BME280;11491;41.942;24.220;2023-05-01T00:22:54;89897.56;;;9.03;86.18
22649;BME280;11491;41.942;24.220;2023-05-01T00:25:22;89893.13;;;9.07;85.35
22649;BME280;11491;41.942;24.220;2023-05-01T00:27:48;89896.66;;;8.99;85.30
22649;BME280;11491;41.942;24.220;2023-05-01T00:30:15;89893.78;;;8.79;86.04
22649;BME280;11491;41.942;24.220;2023-05-01T00:32:42;89887.56;;;8.75;86.41
22649;BME280;11491;41.942;24.220;2023-05-01T00:35:10;89891.31;;;8.87;84.90
22649;BME280;11491;41.942;24.220;2023-05-01T00:37:37;89895.34;;;8.80;84.19
22649;BME280;11491;41.942;24.220;2023-05-01T00:40:05;89893.97;;;8.62;85.15
22649;BME280;11491;41.942;24.220;2023-05-01T00:42:36;89897.28;;;8.47;86.25
22649;BME280;11491;41.942;24.220;2023-05-01T00:45:04;89894.16;;;8.45;86.68
22649;BME280;11491;41.942;24.220;2023-05-01T00:47:31;89891.31;;;8.50;86.70
22649;BME280;11491;41.942;24.220;2023-05-01T00:49:59;89903.97;;;8.53;86.28
22649;BME280;11491;41.942;24.220;2023-05-01T00:52:27;89908.72;;;8.47;86.54
22649;BME280;11491;41.942;24.220;2023-05-01T00:54:54;89907.94;;;8.47;86.76
22649;BME280;11491;41.942;24.220;2023-05-01T00:57:22;89901.16;;;8.49;87.02
22649;BME280;11491;41.942;24.220;2023-05-01T00:59:49;89903.19;;;8.52;87.39
22649;BME280;11491;41.942;24.220;2023-05-01T01:02:15;89907.94;;;8.47;87.59
22649;BME280;11491;41.942;24.220;2023-05-01T01:04:44;89903.19;;;8.52;87.43
22649;BME280;11491;41.942;24.220;2023-05-01T01:07:15;89909.06;;;8.58;86.60
22649;BME280;11491;41.942;24.220;2023-05-01T01:09:56;89888.63;;;8.16;87.42
22649;BME280;11491;41.942;24.220;2023-05-01T01:12:33;89906.75;;;8.23;88.43
22649;BME280;11491;41.942;24.220;2023-05-01T01:15:09;89908.19;;;8.20;88.50
22649;BME280;11491;41.942;24.220;2023-05-01T01:17:46;89920.28;;;8.18;88.33
22649;BME280;11491;41.942;24.220;2023-05-01T01:20:26;89915.41;;;8.20;88.17
22649;BME280;11491;41.942;24.220;2023-05-01T01:29:02;89926.50;;;8.34;86.64
22649;BME280;11491;41.942;24.220;2023-05-01T01:31:33;89923.59;;;8.15;87.16
22649;BME280;11491;41.942;24.220;2023-05-01T01:34:08;89927.75;;;8.04;87.87
22649;BME280;11491;41.942;24.220;2023-05-01T01:36:42;89928.00;;;7.90;87.63
22649;BME280;11491;41.942;24.220;2023-05-01T01:39:19;89919.06;;;7.94;87.86
22649;BME280;11491;41.942;24.220;2023-05-01T01:41:50;89919.44;;;7.84;87.91
22649;BME280;11491;41.942;24.220;2023-05-01T01:44:22;89925.56;;;7.85;88.02
22649;BME280;11491;41.942;24.220;2023-05-01T01:46:53;89934.75;;;7.87;87.46
22649;BME280;11491;41.942;24.220;2023-05-01T01:49:24;89921.47;;;7.87;85.44
22649;BME280;11491;41.942;24.220;2023-05-01T01:51:52;89926.06;;;7.36;87.44
22649;BME280;11491;41.942;24.220;2023-05-01T01:54:25;89916.38;;;7.10;89.18
22649;BME280;11491;41.942;24.220;2023-05-01T01:56:54;89916.50;;;6.84;90.15
22649;BME280;11491;41.942;24.220;2023-05-01T01:59:24;89921.03;;;6.84;90.87
22649;BME280;11491;41.942;24.220;2023-05-01T02:01:52;89918.94;;;6.98;90.52
22649;BME280;11491;41.942;24.220;2023-05-01T02:04:22;89917.84;;;6.99;90.45
22649;BME280;11491;41.942;24.220;2023-05-01T02:06:51;89914.63;;;7.15;91.01
22649;BME280;11491;41.942;24.220;2023-05-01T02:09:19;89922.03;;;7.30;88.96
22649;BME280;11491;41.942;24.220;2023-05-01T02:11:48;89924.25;;;7.28;88.79
22649;BME280;11491;41.942;24.220;2023-05-01T02:14:17;89920.47;;;7.29;88.21
22649;BME280;11491;41.942;24.220;2023-05-01T02:16:45;89918.56;;;7.38;87.68
22649;BME280;11491;41.942;24.220;2023-05-01T02:19:13;89921.66;;;7.40;88.03
22649;BME280;11491;41.942;24.220;2023-05-01T02:21:43;89919.97;;;7.36;87.84
22649;BME280;11491;41.942;24.220;2023-05-01T02:24:11;89918.94;;;7.28;87.18
22649;BME280;11491;41.942;24.220;2023-05-01T02:26:41;89923.19;;;7.20;87.53
22649;BME280;11491;41.942;24.220;2023-05-01T02:29:09;89916.53;;;7.05;87.66
22649;BME280;11491;41.942;24.220;2023-05-01T02:31:36;89923.44;;;7.06;87.71
22649;BME280;11491;41.942;24.220;2023-05-01T02:34:02;89920.84;;;7.19;86.18
22649;BME280;11491;41.942;24.220;2023-05-01T02:36:29;89929.47;;;7.16;85.37
22649;BME280;11491;41.942;24.220;2023-05-01T02:38:58;89921.22;;;7.08;86.13
22649;BME280;11491;41.942;24.220;2023-05-01T02:41:25;89920.13;;;7.09;85.96
22649;BME280;11491;41.942;24.220;2023-05-01T02:43:57;89927.16;;;7.05;85.38
22649;BME280;11491;41.942;24.220;2023-05-01T02:46:27;89920.38;;;6.87;86.02
22649;BME280;11491;41.942;24.220;2023-05-01T02:48:56;89918.47;;;6.96;85.45
22649;BME280;11491;41.942;24.220;2023-05-01T02:51:25;89919.28;;;6.88;84.97
22649;BME280;11491;41.942;24.220;2023-05-01T02:53:53;89916.22;;;6.77;85.76
22649;BME280;11491;41.942;24.220;2023-05-01T02:56:21;89921.75;;;6.63;86.52
22649;BME280;11491;41.942;24.220;2023-05-01T02:58:48;89919.59;;;6.48;86.97
22649;BME280;11491;41.942;24.220;2023-05-01T03:01:15;89919.59;;;6.48;86.60
22649;BME280;11491;41.942;24.220;2023-05-01T03:03:42;89919.28;;;6.50;86.65
22649;BME280;11491;41.942;24.220;2023-05-01T03:06:08;89922.78;;;6.33;86.54
22649;BME280;11491;41.942;24.220;2023-05-01T03:08:35;89930.59;;;6.20;87.63
22649;BME280;11491;41.942;24.220;2023-05-01T03:11:04;89931.59;;;6.07;88.59
22649;BME280;11491;41.942;24.220;2023-05-01T03:13:32;89936.25;;;5.93;88.46
22649;BME280;11491;41.942;24.220;2023-05-01T03:15:59;89927.50;;;6.01;88.35
22649;BME280;11491;41.942;24.220;2023-05-01T03:18:26;89916.00;;;5.97;87.41
22649;BME280;11491;41.942;24.220;2023-05-01T03:20:53;89938.13;;;6.01;87.90
22649;BME280;11491;41.942;24.220;2023-05-01T03:23:21;89928.75;;;5.69;90.08
22649;BME280;11491;41.942;24.220;2023-05-01T03:25:48;89932.22;;;5.52;91.09
22649;BME280;11491;41.942;24.220;2023-05-01T03:28:15;89943.91;;;5.42;91.03
22649;BME280;11491;41.942;24.220;2023-05-01T03:30:44;89953.44;;;5.52;91.27
22649;BME280;11491;41.942;24.220;2023-05-01T03:33:10;89927.50;;;5.31;90.76
22649;BME280;11491;41.942;24.220;2023-05-01T03:35:37;89953.28;;;5.57;91.03
22649;BME280;11491;41.942;24.220;2023-05-01T03:38:05;89951.69;;;5.73;89.23
22649;BME280;11491;41.942;24.220;2023-05-01T03:40:32;89949.69;;;5.70;89.21
22649;BME280;11491;41.942;24.220;2023-05-01T03:42:59;89951.53;;;5.44;89.99
22649;BME280;11491;41.942;24.220;2023-05-01T03:45:25;89955.28;;;5.43;90.15
22649;BME280;11491;41.942;24.220;2023-05-01T03:47:53;89954.50;;;5.51;89.84
22649;BME280;11491;41.942;24.220;2023-05-01T03:50:21;89955.75;;;5.53;89.95
22649;BME280;11491;41.942;24.220;2023-05-01T03:52:48;89961.38;;;5.60;89.81
22649;BME280;11491;41.942;24.220;2023-05-01T03:55:15;89959.97;;;5.63;89.51
22649;BME280;11491;41.942;24.220;2023-05-01T03:57:41;89970.91;;;5.70;89.15
22649;BME280;11491;41.942;24.220;2023-05-01T04:00:09;89952.16;;;5.58;89.99
22649;BME280;11491;41.942;24.220;2023-05-01T04:02:36;89969.97;;;5.66;90.32
22649;BME280;11491;41.942;24.220;2023-05-01T04:05:05;89962.78;;;5.75;89.99
22649;BME280;11491;41.942;24.220;2023-05-01T04:07:32;89963.09;;;5.82;89.46
22649;BME280;11491;41.942;24.220;2023-05-01T04:09:58;89967.94;;;5.89;90.10
22649;BME280;11491;41.942;24.220;2023-05-01T04:12:25;89962.19;;;5.96;89.91
22649;BME280;11491;41.942;24.220;2023-05-01T04:14:52;89964.97;;;6.08;89.62
22649;BME280;11491;41.942;24.220;2023-05-01T04:17:19;89967.13;;;6.23;88.38
22649;BME280;11491;41.942;24.220;2023-05-01T04:19:45;89968.09;;;6.28;88.13
22649;BME280;11491;41.942;24.220;2023-05-01T04:22:14;89966.19;;;6.37;88.53
22649;BME280;11491;41.942;24.220;2023-05-01T04:24:41;89967.41;;;6.48;87.48
22649;BME280;11491;41.942;24.220;2023-05-01T04:27:07;89968.34;;;6.52;87.59
22649;BME280;11491;41.942;24.220;2023-05-01T04:29:34;89964.41;;;6.58;87.06
22649;BME280;11491;41.942;24.220;2023-05-01T04:32:01;89973.94;;;6.59;86.99
22649;BME280;11491;41.942;24.220;2023-05-01T04:34:28;89961.56;;;6.72;87.57
22649;BME280;11491;41.942;24.220;2023-05-01T04:36:55;89971.34;;;6.89;87.01
22649;BME280;11491;41.942;24.220;2023-05-01T04:39:23;89976.31;;;6.99;86.92
22649;BME280;11491;41.942;24.220;2023-05-01T04:41:50;89973.34;;;7.01;86.92
22649;BME280;11491;41.942;24.220;2023-05-01T04:44:17;89986.88;;;7.17;86.93
22649;BME280;11491;41.942;24.220;2023-05-01T04:46:44;89969.13;;;7.29;86.73
22649;BME280;11491;41.942;24.220;2023-05-01T04:49:10;89981.50;;;7.55;86.81
22649;BME280;11491;41.942;24.220;2023-05-01T04:51:37;89984.03;;;7.72;86.30
22649;BME280;11491;41.942;24.220;2023-05-01T04:54:04;89977.16;;;7.92;85.16
22649;BME280;11491;41.942;24.220;2023-05-01T04:56:32;89975.69;;;8.04;84.00
22649;BME280;11491;41.942;24.220;2023-05-01T04:58:59;89985.47;;;8.12;83.85
22649;BME280;11491;41.942;24.220;2023-05-01T05:01:25;89979.53;;;8.27;83.56
22649;BME280;11491;41.942;24.220;2023-05-01T05:03:52;89981.38;;;8.35;83.21
22649;BME280;11491;41.942;24.220;2023-05-01T05:06:19;89988.06;;;8.41;83.15
22649;BME280;11491;41.942;24.220;2023-05-01T05:08:45;89979.91;;;8.59;83.20
22649;BME280;11491;41.942;24.220;2023-05-01T05:11:16;89991.28;;;8.68;81.52
22649;BME280;11491;41.942;24.220;2023-05-01T05:13:44;89992.22;;;8.84;81.03
22649;BME280;11491;41.942;24.220;2023-05-01T05:16:12;89992.41;;;8.92;80.69
22649;BME280;11491;41.942;24.220;2023-05-01T05:18:39;89994.03;;;9.05;80.07
22649;BME280;11491;41.942;24.220;2023-05-01T05:21:06;89994.03;;;9.17;79.90
22649;BME280;11491;41.942;24.220;2023-05-01T05:23:35;89975.38;;;9.17;79.79
22649;BME280;11491;41.942;24.220;2023-05-01T05:26:01;89994.69;;;9.39;79.67
22649;BME280;11491;41.942;24.220;2023-05-01T05:28:29;89991.94;;;9.47;79.26
22649;BME280;11491;41.942;24.220;2023-05-01T05:30:57;90003.38;;;9.73;78.90
22649;BME280;11491;41.942;24.220;2023-05-01T05:33:24;90003.22;;;9.93;78.71
22649;BME280;11491;41.942;24.220;2023-05-01T05:35:50;90005.09;;;10.05;79.12
22649;BME280;11491;41.942;24.220;2023-05-01T05:38:17;90004.41;;;10.33;78.02
22649;BME280;11491;41.942;24.220;2023-05-01T05:40:44;90010.53;;;10.62;76.73
22649;BME280;11491;41.942;24.220;2023-05-01T05:43:11;90009.75;;;10.89;75.80
22649;BME280;11491;41.942;24.220;2023-05-01T05:45:38;90007.88;;;11.06;74.55
22649;BME280;11491;41.942;24.220;2023-05-01T05:48:06;90009.88;;;11.25;73.77
22649;BME280;11491;41.942;24.220;2023-05-01T05:50:33;90010.50;;;11.50;74.10
22649;BME280;11491;41.942;24.220;2023-05-01T05:52:59;90012.38;;;11.65;70.05
22649;BME280;11491;41.942;24.220;2023-05-01T05:55:26;90010.31;;;11.74;69.97
22649;BME280;11491;41.942;24.220;2023-05-01T05:57:53;90009.72;;;11.81;70.70
22649;BME280;11491;41.942;24.220;2023-05-01T06:00:20;90016.34;;;12.03;68.55
22649;BME280;11491;41.942;24.220;2023-05-01T06:02:47;90019.09;;;12.22;69.28
22649;BME280;11491;41.942;24.220;2023-05-01T06:05:15;90017.97;;;12.43;67.98
22649;BME280;11491;41.942;24.220;2023-05-01T06:07:42;90020.09;;;12.53;66.88
22649;BME280;11491;41.942;24.220;2023-05-01T06:10:10;90017.72;;;12.67;66.57
22649;BME280;11491;41.942;24.220;2023-05-01T06:12:36;90025.63;;;12.80;65.17
22649;BME280;11491;41.942;24.220;2023-05-01T06:15:05;90024.97;;;12.86;63.79
22649;BME280;11491;41.942;24.220;2023-05-01T06:17:32;89997.81;;;12.68;62.68
22649;BME280;11491;41.942;24.220;2023-05-01T06:19:59;90023.91;;;12.71;63.43
22649;BME280;11491;41.942;24.220;2023-05-01T06:22:31;90026.31;;;12.77;64.87
22649;BME280;11491;41.942;24.220;2023-05-01T06:24:57;90030.28;;;12.83;65.99
22649;BME280;11491;41.942;24.220;2023-05-01T06:27:24;90023.44;;;12.85;66.51
22649;BME280;11491;41.942;24.220;2023-05-01T06:29:51;90027.22;;;12.84;66.84
22649;BME280;11491;41.942;24.220;2023-05-01T06:32:18;90011.84;;;12.81;66.86
22649;BME280;11491;41.942;24.220;2023-05-01T06:34:45;90016.59;;;12.88;66.40
22649;BME280;11491;41.942;24.220;2023-05-01T06:37:11;90022.09;;;12.95;68.51
22649;BME280;11491;41.942;24.220;2023-05-01T06:39:39;90037.03;;;12.96;70.90
22649;BME280;11491;41.942;24.220;2023-05-01T06:42:06;90036.91;;;12.89;71.88
22649;BME280;11491;41.942;24.220;2023-05-01T06:44:35;90025.63;;;12.80;72.37
22649;BME280;11491;41.942;24.220;2023-05-01T06:47:02;90036.75;;;13.01;73.89
22649;BME280;11491;41.942;24.220;2023-05-01T06:49:29;90032.28;;;13.09;73.36
22649;BME280;11491;41.942;24.220;2023-05-01T06:51:55;90039.50;;;13.24;73.04
22649;BME280;11491;41.942;24.220;2023-05-01T06:54:22;90039.00;;;13.38;70.41
22649;BME280;11491;41.942;24.220;2023-05-01T06:56:51;90036.88;;;13.47;65.45
22649;BME280;11491;41.942;24.220;2023-05-01T06:59:18;90035.69;;;13.68;61.44
22649;BME280;11491;41.942;24.220;2023-05-01T07:01:44;90035.69;;;13.68;61.00
22649;BME280;11491;41.942;24.220;2023-05-01T07:04:11;90023.88;;;13.49;61.46
22649;BME280;11491;41.942;24.220;2023-05-01T07:06:38;90041.28;;;13.82;59.93
22649;BME280;11491;41.942;24.220;2023-05-01T07:09:05;90037.81;;;14.05;61.11
22649;BME280;11491;41.942;24.220;2023-05-01T07:11:32;90038.31;;;14.40;59.73
22649;BME280;11491;41.942;24.220;2023-05-01T07:14:00;90031.00;;;14.64;60.00
22649;BME280;11491;41.942;24.220;2023-05-01T07:16:27;90041.97;;;14.82;62.39
22649;BME280;11491;41.942;24.220;2023-05-01T07:18:54;90047.66;;;15.07;59.31
22649;BME280;11491;41.942;24.220;2023-05-01T07:21:21;90049.94;;;15.05;59.02
22649;BME280;11491;41.942;24.220;2023-05-01T07:23:48;90048.53;;;15.15;60.67
22649;BME280;11491;41.942;24.220;2023-05-01T07:26:15;90044.97;;;15.41;60.34
22649;BME280;11491;41.942;24.220;2023-05-01T07:28:41;90049.94;;;15.73;59.75
22649;BME280;11491;41.942;24.220;2023-05-01T07:31:09;90044.03;;;16.01;59.88
22649;BME280;11491;41.942;24.220;2023-05-01T07:33:36;90043.31;;;16.07;58.04
22649;BME280;11491;41.942;24.220;2023-05-01T07:36:03;90045.66;;;16.12;56.64
22649;BME280;11491;41.942;24.220;2023-05-01T07:38:30;90049.34;;;15.90;55.43
22649;BME280;11491;41.942;24.220;2023-05-01T07:40:57;90043.50;;;15.84;56.52
22649;BME280;11491;41.942;24.220;2023-05-01T07:43:24;90043.53;;;15.88;55.32
22649;BME280;11491;41.942;24.220;2023-05-01T07:45:54;90047.06;;;15.96;60.04
22649;BME280;11491;41.942;24.220;2023-05-01T07:48:23;90042.75;;;16.39;59.32
22649;BME280;11491;41.942;24.220;2023-05-01T07:50:50;90046.09;;;16.77;56.33
22649;BME280;11491;41.942;24.220;2023-05-01T07:53:17;90048.56;;;17.04;54.72
22649;BME280;11491;41.942;24.220;2023-05-01T07:55:44;90044.41;;;17.24;54.94
22649;BME280;11491;41.942;24.220;2023-05-01T07:58:11;90052.50;;;17.24;53.71
22649;BME280;11491;41.942;24.220;2023-05-01T08:00:37;90051.81;;;17.41;56.20
22649;BME280;11491;41.942;24.220;2023-05-01T08:03:04;90051.47;;;17.61;54.44
22649;BME280;11491;41.942;24.220;2023-05-01T08:05:32;90056.47;;;17.44;53.36
22649;BME280;11491;41.942;24.220;2023-05-01T08:07:59;90057.22;;;17.49;53.55
22649;BME280;11491;41.942;24.220;2023-05-01T08:10:25;90061.84;;;17.37;52.13
22649;BME280;11491;41.942;24.220;2023-05-01T08:12:53;90059.53;;;17.39;51.19
22649;BME280;11491;41.942;24.220;2023-05-01T08:15:19;90057.25;;;17.56;54.77
22649;BME280;11491;41.942;24.220;2023-05-01T08:17:47;90063.47;;;17.67;53.52
22649;BME280;11491;41.942;24.220;2023-05-01T08:20:15;90063.44;;;17.53;54.75
22649;BME280;11491;41.942;24.220;2023-05-01T08:22:43;90064.13;;;17.28;53.71
22649;BME280;11491;41.942;24.220;2023-05-01T08:25:10;90061.75;;;17.16;55.38
22649;BME280;11491;41.942;24.220;2023-05-01T08:27:37;90070.06;;;16.82;55.04
22649;BME280;11491;41.942;24.220;2023-05-01T08:30:05;90076.84;;;16.62;56.18
22649;BME280;11491;41.942;24.220;2023-05-01T08:32:32;90064.44;;;16.53;54.86
22649;BME280;11491;41.942;24.220;2023-05-01T08:34:58;90073.00;;;16.63;53.60
22649;BME280;11491;41.942;24.220;2023-05-01T08:37:25;90075.50;;;16.34;53.80
22649;BME280;11491;41.942;24.220;2023-05-01T08:39:53;90063.94;;;16.37;56.72
22649;BME280;11491;41.942;24.220;2023-05-01T08:42:20;90076.16;;;16.20;54.11
22649;BME280;11491;41.942;24.220;2023-05-01T08:44:47;90071.41;;;16.03;56.33
22649;BME280;11491;41.942;24.220;2023-05-01T08:47:17;90069.41;;;15.96;56.54
22649;BME280;11491;41.942;24.220;2023-05-01T08:49:44;90076.38;;;16.01;56.25
22649;BME280;11491;41.942;24.220;2023-05-01T08:52:13;90073.03;;;16.14;55.27
22649;BME280;11491;41.942;24.220;2023-05-01T08:54:42;90074.94;;;16.14;55.26
22649;BME280;11491;41.942;24.220;2023-05-01T08:57:11;90081.97;;;16.26;55.93
22649;BME280;11491;41.942;24.220;2023-05-01T08:59:39;90060.47;;;16.33;55.31
22649;BME280;11491;41.942;24.220;2023-05-01T09:02:07;90068.25;;;16.45;54.16
22649;BME280;11491;41.942;24.220;2023-05-01T09:04:36;90074.34;;;16.35;54.12
22649;BME280;11491;41.942;24.220;2023-05-01T09:07:03;90072.44;;;16.39;55.77
22649;BME280;11491;41.942;24.220;2023-05-01T09:09:31;90074.34;;;16.35;55.53
22649;BME280;11491;41.942;24.220;2023-05-01T09:12:00;90074.84;;;16.48;54.31
22649;BME280;11491;41.942;24.220;2023-05-01T09:14:30;90074.50;;;16.56;54.55
22649;BME280;11491;41.942;24.220;2023-05-01T09:16:57;90089.16;;;16.55;54.55
22649;BME280;11491;41.942;24.220;2023-05-01T09:19:24;90089.84;;;16.45;54.60
22649;BME280;11491;41.942;24.220;2023-05-01T09:21:52;90082.69;;;16.15;58.66
22649;BME280;11491;41.942;24.220;2023-05-01T09:24:19;90090.94;;;15.92;58.49
22649;BME280;11491;41.942;24.220;2023-05-01T09:26:46;90098.50;;;15.80;58.26
22649;BME280;11491;41.942;24.220;2023-05-01T09:29:37;90096.16;;;15.41;60.31
22649;BME280;11491;41.942;24.220;2023-05-01T09:32:15;90101.41;;;15.00;56.87
22649;BME280;11491;41.942;24.220;2023-05-01T09:34:44;90103.47;;;14.53;59.25
22649;BME280;11491;41.942;24.220;2023-05-01T09:37:25;90115.44;;;14.10;61.10
22649;BME280;11491;41.942;24.220;2023-05-01T09:40:07;90119.34;;;13.89;63.25
22649;BME280;11491;41.942;24.220;2023-05-01T09:42:35;90113.59;;;13.68;64.68
22649;BME280;11491;41.942;24.220;2023-05-01T09:45:11;90117.28;;;13.60;64.03
22649;BME280;11491;41.942;24.220;2023-05-01T09:47:38;90112.66;;;13.37;63.53
22649;BME280;11491;41.942;24.220;2023-05-01T09:50:07;90109.78;;;13.10;65.28
22649;BME280;11491;41.942;24.220;2023-05-01T09:52:34;90118.13;;;13.05;62.48
22649;BME280;11491;41.942;24.220;2023-05-01T09:55:14;90095.06;;;12.65;63.66
22649;BME280;11491;41.942;24.220;2023-05-01T09:57:42;90124.31;;;12.70;65.26
22649;BME280;11491;41.942;24.220;2023-05-01T10:00:12;90127.09;;;12.58;67.85
22649;BME280;11491;41.942;24.220;2023-05-01T10:02:41;90123.66;;;12.42;68.04
22649;BME280;11491;41.942;24.220;2023-05-01T10:05:08;90124.47;;;12.42;69.43
22649;BME280;11491;41.942;24.220;2023-05-01T10:07:36;90115.09;;;12.36;66.83
22649;BME280;11491;41.942;24.220;2023-05-01T10:10:16;90112.94;;;12.42;70.57
22649;BME280;11491;41.942;24.220;2023-05-01T10:12:43;90117.63;;;12.45;67.89
22649;BME280;11491;41.942;24.220;2023-05-01T10:15:12;90105.16;;;12.53;68.49
22649;BME280;11491;41.942;24.220;2023-05-01T10:17:39;90111.94;;;12.66;69.78
22649;BME280;11491;41.942;24.220;2023-05-01T10:20:09;90109.06;;;12.75;69.74
22649;BME280;11491;41.942;24.220;2023-05-01T10:22:37;90102.84;;;12.70;67.10
22649;BME280;11491;41.942;24.220;2023-05-01T10:25:07;90096.63;;;12.66;66.22
22649;BME280;11491;41.942;24.220;2023-05-01T10:27:34;90103.28;;;12.92;65.11
22649;BME280;11491;41.942;24.220;2023-05-01T10:30:02;90109.34;;;12.89;65.83
22649;BME280;11491;41.942;24.220;2023-05-01T10:32:32;90103.22;;;12.88;64.94
22649;BME280;11491;41.942;24.220;2023-05-01T10:35:01;90096.34;;;12.91;64.70
22649;BME280;11491;41.942;24.220;2023-05-01T10:37:33;90095.94;;;13.08;65.04
22649;BME280;11491;41.942;24.220;2023-05-01T10:43:19;90096.84;;;13.55;63.44
22649;BME280;11491;41.942;24.220;2023-05-01T10:45:51;90095.00;;;14.28;64.13
22649;BME280;11491;41.942;24.220;2023-05-01T10:48:53;90093.78;;;15.36;59.50
22649;BME280;11491;41.942;24.220;2023-05-01T10:51:22;90090.94;;;15.92;54.57
22649;BME280;11491;41.942;24.220;2023-05-01T10:54:21;90094.75;;;16.84;49.62
22649;BME280;11491;41.942;24.220;2023-05-01T10:56:49;90095.00;;;17.27;51.24
22649;BME280;11491;41.942;24.220;2023-05-01T10:59:16;90099.88;;;17.95;53.43
22649;BME280;11491;41.942;24.220;2023-05-01T11:01:43;90106.84;;;18.10;48.63
22649;BME280;11491;41.942;24.220;2023-05-01T11:04:49;90100.66;;;18.13;48.25
22649;BME280;11491;41.942;24.220;2023-05-01T11:07:19;90099.13;;;18.01;45.94
22649;BME280;11491;41.942;24.220;2023-05-01T11:09:47;90092.75;;;17.51;46.47
22649;BME280;11491;41.942;24.220;2023-05-01T11:12:48;90104.34;;;17.48;51.66
22649;BME280;11491;41.942;24.220;2023-05-01T11:15:31;90106.81;;;17.89;47.32
22649;BME280;11491;41.942;24.220;2023-05-01T11:17:58;90105.38;;;18.48;46.50
22649;BME280;11491;41.942;24.220;2023-05-01T11:20:48;90099.06;;;19.34;50.18
22649;BME280;11491;41.942;24.220;2023-05-01T11:23:22;90101.97;;;19.93;46.15
22649;BME280;11491;41.942;24.220;2023-05-01T11:26:00;90106.66;;;19.82;45.51
22649;BME280;11491;41.942;24.220;2023-05-01T11:28:29;90109.84;;;19.55;46.04
22649;BME280;11491;41.942;24.220;2023-05-01T11:30:57;90110.00;;;18.98;42.13
22649;BME280;11491;41.942;24.220;2023-05-01T11:33:24;90105.34;;;18.45;42.82
22649;BME280;11491;41.942;24.220;2023-05-01T11:36:02;90104.50;;;17.91;44.88
22649;BME280;11491;41.942;24.220;2023-05-01T11:38:31;90099.00;;;17.73;50.83
22649;BME280;11491;41.942;24.220;2023-05-01T11:40:59;90091.78;;;18.13;51.29
22649;BME280;11491;41.942;24.220;2023-05-01T11:43:27;90095.28;;;18.67;47.90
22649;BME280;11491;41.942;24.220;2023-05-01T11:45:54;90088.75;;;18.86;46.93
22649;BME280;11491;41.942;24.220;2023-05-01T11:48:27;90086.78;;;18.97;44.53
22649;BME280;11491;41.942;24.220;2023-05-01T11:50:54;90089.03;;;19.24;45.33
22649;BME280;11491;41.942;24.220;2023-05-01T11:53:23;90082.91;;;18.69;44.72
22649;BME280;11491;41.942;24.220;2023-05-01T11:55:50;90082.94;;;18.51;43.89
22649;BME280;11491;41.942;24.220;2023-05-01T11:58:16;90086.78;;;18.47;44.96
22649;BME280;11491;41.942;24.220;2023-05-01T12:00:43;90084.47;;;18.17;47.43
22649;BME280;11491;41.942;24.220;2023-05-01T12:03:11;90082.09;;;17.86;47.03
22649;BME280;11491;41.942;24.220;2023-05-01T12:05:39;90084.41;;;17.84;46.95
22649;BME280;11491;41.942;24.220;2023-05-01T12:08:12;90085.19;;;17.85;49.68
22649;BME280;11491;41.942;24.220;2023-05-01T12:10:45;90092.88;;;17.83;46.91
22649;BME280;11491;41.942;24.220;2023-05-01T12:13:13;90082.00;;;17.61;46.94
22649;BME280;11491;41.942;24.220;2023-05-01T12:15:43;90086.56;;;17.43;46.05
22649;BME280;11491;41.942;24.220;2023-05-01T12:18:11;90085.81;;;17.50;46.75
22649;BME280;11491;41.942;24.220;2023-05-01T12:20:39;90083.97;;;17.75;46.46
22649;BME280;11491;41.942;24.220;2023-05-01T12:23:07;90084.38;;;17.81;47.05
22649;BME280;11491;41.942;24.220;2023-05-01T12:25:35;90076.53;;;17.43;46.97
22649;BME280;11491;41.942;24.220;2023-05-01T12:28:09;90078.31;;;17.11;49.01
22649;BME280;11491;41.942;24.220;2023-05-01T12:30:37;90074.81;;;16.99;49.42
22649;BME280;11491;41.942;24.220;2023-05-01T12:33:08;90078.41;;;16.66;47.50
22649;BME280;11491;41.942;24.220;2023-05-01T12:35:35;90079.34;;;16.33;49.09
22649;BME280;11491;41.942;24.220;2023-05-01T12:38:09;90078.03;;;16.12;50.26
22649;BME280;11491;41.942;24.220;2023-05-01T12:40:37;90084.97;;;16.13;52.34
22649;BME280;11491;41.942;24.220;2023-05-01T12:43:04;90083.38;;;16.05;51.45
22649;BME280;11491;41.942;24.220;2023-05-01T12:45:37;90088.53;;;15.84;52.55
22649;BME280;11491;41.942;24.220;2023-05-01T12:48:08;90080.13;;;15.89;53.36
22649;BME280;11491;41.942;24.220;2023-05-01T12:50:35;90080.78;;;15.79;52.42
22649;BME280;11491;41.942;24.220;2023-05-01T12:53:02;90089.81;;;15.60;52.11
22649;BME280;11491;41.942;24.220;2023-05-01T12:55:29;90091.19;;;15.43;52.36
22649;BME280;11491;41.942;24.220;2023-05-01T12:57:58;90084.16;;;15.35;52.28
22649;BME280;11491;41.942;24.220;2023-05-01T13:00:25;90089.44;;;15.27;54.62
22649;BME280;11491;41.942;24.220;2023-05-01T13:02:53;90080.72;;;15.04;51.51
22649;BME280;11491;41.942;24.220;2023-05-01T13:05:20;90084.28;;;14.81;52.08
22649;BME280;11491;41.942;24.220;2023-05-01T13:07:48;90084.69;;;14.57;52.65
22649;BME280;11491;41.942;24.220;2023-05-01T13:10:28;90080.66;;;14.43;57.75
22649;BME280;11491;41.942;24.220;2023-05-01T13:12:56;90095.16;;;13.89;60.54